Main page
METAR-TAF:

METAR-TAF

Airports :

Oil platform

Ekofisk, Norway

latitude: 56-33N, longitude: 003-15E, elevation: 3 m

Current weather observation

The report was made 22 minutes ago, at 22:50 UTC
Wind 22 kt from the West/Southwest
Temperature 10°C
Humidity 71%
Pressure 995 hPa
Visibility 10 km or more
Scattered clouds at a height of 2000 ft

METAR: ENLE 282250Z 24022KT 9999 SCT020 10/05 Q0995 W12/S5

Time: 00:12 (23:12 UTC)

Forecast

The report was made 3 hours and 12 minutes ago, at 20:00 UTC
Forecast valid from 28 at 21 UTC to 29 at 06 UTC
Wind 22 kt from the Southwest
Visibility 10 km or more
Scattered clouds at a height of 2000 ft, Towering cumulus.
Broken clouds at a height of 4000 ft
Temporary
from 28 at 21 UTC to 29 at 03 UTC
Scattered clouds at a height of 2000 ft, Cumulonimbus.
rain showers

TAF: ENLE 282000Z 2821/2906 23022KT 9999 SCT020TCU BKN040 TEMPO 2821/2903 SHRA SCT020CB

Weather observations and forecasts of more than 4000 airports (METAR and TAF reports).

The available stations are represented by yellow and red dots on the map.

Hover mouse over dot to see the name of the station.

Then click to see weather observations and forecasts.

To change the map : click on the green buttons with a black cross to zoom in, on the green button with a dash to zoom out, or on the green arrows for adjacent maps.


METAR-TAF: